createdAt,value
2017-12-26T00:02:26.237Z,92.70
2017-12-26T00:04:52.790Z,92.20
2017-12-26T00:07:19.410Z,92.20
2017-12-26T00:09:46.084Z,92.30
2017-12-26T00:12:12.730Z,92.70
2017-12-26T00:14:39.381Z,92.40
2017-12-26T00:17:05.950Z,92.30
2017-12-26T00:19:32.485Z,92.00
2017-12-26T00:21:59.329Z,92.10
2017-12-26T00:24:25.951Z,91.90
2017-12-26T00:26:52.597Z,91.80
2017-12-26T00:29:19.255Z,91.80
2017-12-26T00:31:45.798Z,91.90
2017-12-26T00:34:12.342Z,91.70
2017-12-26T00:36:39.019Z,91.80
2017-12-26T00:39:05.643Z,92.00
2017-12-26T00:41:32.242Z,92.20
2017-12-26T00:43:58.968Z,92.40
2017-12-26T00:46:25.620Z,92.30
2017-12-26T00:48:52.171Z,92.50
2017-12-26T00:51:18.754Z,92.40
2017-12-26T00:53:45.670Z,92.40
2017-12-26T00:56:12.290Z,92.40
2017-12-26T00:58:38.939Z,92.60
2017-12-26T01:01:05.486Z,92.80
2017-12-26T01:03:32.138Z,92.40
2017-12-26T01:05:58.781Z,92.50
2017-12-26T01:08:25.358Z,92.60
2017-12-26T01:10:51.911Z,92.40
2017-12-26T01:13:18.762Z,92.30
2017-12-26T01:15:45.295Z,92.00
2017-12-26T01:18:11.849Z,92.90
2017-12-26T01:20:38.579Z,93.00
2017-12-26T01:23:05.117Z,93.00
2017-12-26T01:25:31.671Z,92.90
2017-12-26T01:27:58.451Z,92.40
2017-12-26T01:30:25.102Z,92.60
2017-12-26T01:32:51.751Z,92.50
2017-12-26T01:35:18.374Z,92.40
2017-12-26T01:37:44.933Z,92.30
2017-12-26T01:40:11.499Z,92.50
2017-12-26T01:42:38.218Z,92.70
2017-12-26T01:45:04.758Z,92.60
2017-12-26T01:47:31.414Z,92.20
2017-12-26T01:49:58.089Z,92.20
2017-12-26T01:52:24.634Z,92.20
2017-12-26T01:54:51.261Z,91.90
2017-12-26T01:57:17.911Z,92.20
2017-12-26T01:59:44.490Z,92.00
2017-12-26T02:02:11.107Z,91.80
2017-12-26T02:04:44.722Z,91.60
2017-12-26T02:07:11.401Z,91.40
2017-12-26T02:09:38.044Z,90.90
2017-12-26T02:12:04.661Z,91.00
2017-12-26T02:14:31.446Z,91.30
2017-12-26T02:16:58.069Z,91.20
2017-12-26T02:19:24.720Z,91.10
2017-12-26T02:21:51.293Z,91.50
2017-12-26T02:24:17.825Z,91.30
2017-12-26T02:26:44.695Z,91.80
2017-12-26T02:29:11.235Z,91.00
2017-12-26T02:31:37.865Z,91.00
2017-12-26T02:34:04.474Z,90.90
2017-12-26T02:36:31.395Z,91.00
2017-12-26T02:38:58.046Z,91.00
2017-12-26T02:41:24.666Z,91.20
2017-12-26T02:43:51.522Z,91.30
2017-12-26T02:46:18.174Z,91.40
2017-12-26T02:48:44.847Z,91.30
2017-12-26T02:51:11.467Z,91.40
2017-12-26T02:53:38.015Z,91.70
2017-12-26T02:56:04.629Z,91.50
2017-12-26T02:58:31.540Z,92.60
2017-12-26T03:00:58.081Z,92.60
2017-12-26T03:03:24.679Z,92.90
2017-12-26T03:05:51.670Z,92.10
2017-12-26T03:08:18.218Z,92.10
2017-12-26T03:10:44.877Z,91.50
2017-12-26T03:13:11.517Z,90.70
2017-12-26T03:15:38.165Z,90.60
2017-12-26T03:18:04.844Z,90.30
2017-12-26T03:20:31.390Z,90.40
2017-12-26T03:22:57.930Z,90.70
2017-12-26T03:25:24.540Z,90.00
2017-12-26T03:27:51.450Z,90.90
2017-12-26T03:30:17.998Z,90.90
2017-12-26T03:32:44.741Z,90.90
2017-12-26T03:35:11.388Z,90.70
2017-12-26T03:37:38.042Z,91.70
2017-12-26T03:40:04.694Z,91.90
2017-12-26T03:42:31.241Z,91.70
2017-12-26T03:44:57.884Z,91.30
2017-12-26T03:47:24.535Z,91.10
2017-12-26T03:49:51.187Z,91.50
2017-12-26T03:52:17.810Z,92.10
2017-12-26T03:54:44.503Z,92.30
2017-12-26T03:57:11.028Z,92.30
2017-12-26T03:59:37.578Z,92.20
2017-12-26T04:02:04.198Z,92.10
2017-12-26T04:04:30.847Z,92.30
2017-12-26T04:06:57.501Z,92.10
2017-12-26T04:09:24.249Z,91.70
2017-12-26T04:11:50.823Z,91.30
2017-12-26T04:14:17.475Z,91.20
2017-12-26T04:16:44.078Z,91.70
2017-12-26T04:19:10.771Z,91.60
2017-12-26T04:21:37.389Z,91.10
2017-12-26T04:24:04.046Z,90.80
2017-12-26T04:26:30.630Z,90.80
2017-12-26T04:28:57.241Z,91.60
2017-12-26T04:31:23.843Z,91.80
2017-12-26T04:33:50.464Z,91.60
2017-12-26T04:36:17.112Z,91.50
2017-12-26T04:38:43.964Z,91.50
2017-12-26T04:41:10.586Z,91.10
2017-12-26T04:43:37.263Z,90.40
2017-12-26T04:46:03.912Z,90.90
2017-12-26T04:48:30.535Z,91.00
2017-12-26T04:50:57.213Z,90.20
2017-12-26T04:53:24.069Z,89.90
2017-12-26T04:55:50.818Z,89.80
2017-12-26T04:58:17.571Z,89.50
2017-12-26T05:00:44.324Z,89.20
2017-12-26T05:03:10.971Z,89.40
2017-12-26T05:05:37.621Z,89.30
2017-12-26T05:08:04.268Z,89.50
2017-12-26T05:10:30.919Z,89.30
2017-12-26T05:12:57.465Z,89.10
2017-12-26T05:15:24.116Z,89.40
2017-12-26T05:17:50.737Z,89.10
2017-12-26T05:20:17.314Z,89.20
2017-12-26T05:22:44.066Z,89.20
2017-12-26T05:25:10.605Z,89.20
2017-12-26T05:27:37.264Z,89.70
2017-12-26T05:30:03.986Z,90.10
2017-12-26T05:32:30.663Z,90.30
2017-12-26T05:34:57.211Z,90.40
2017-12-26T05:37:23.828Z,90.50
2017-12-26T05:39:50.370Z,90.80
2017-12-26T05:42:16.958Z,90.80
2017-12-26T05:44:43.586Z,91.20
2017-12-26T05:47:10.250Z,91.80
2017-12-26T05:49:36.903Z,91.80
2017-12-26T05:52:03.634Z,91.60
2017-12-26T05:54:30.162Z,91.10
2017-12-26T05:56:56.851Z,90.40
2017-12-26T05:59:23.456Z,89.70
2017-12-26T06:01:50.050Z,89.10
2017-12-26T06:04:16.699Z,88.70
2017-12-26T06:06:43.345Z,88.30
2017-12-26T06:09:09.997Z,87.60
2017-12-26T06:11:36.645Z,87.20
2017-12-26T06:14:03.235Z,87.10
2017-12-26T06:16:30.221Z,87.00
2017-12-26T06:18:56.800Z,87.00
2017-12-26T06:21:23.694Z,87.50
2017-12-26T06:23:50.714Z,87.40
2017-12-26T06:26:17.359Z,87.40
2017-12-26T06:28:44.149Z,87.70
2017-12-26T06:31:11.170Z,87.60
2017-12-26T06:33:37.821Z,87.60
2017-12-26T06:36:04.442Z,87.70
2017-12-26T06:38:31.093Z,87.70
2017-12-26T06:40:57.767Z,88.00
2017-12-26T06:43:24.357Z,87.90
2017-12-26T06:45:51.376Z,88.60
2017-12-26T06:48:18.003Z,88.60
2017-12-26T06:50:44.784Z,88.70
2017-12-26T06:53:11.338Z,89.20
2017-12-26T06:55:37.973Z,89.30
2017-12-26T06:58:04.709Z,89.10
2017-12-26T07:00:31.374Z,89.00
2017-12-26T07:02:58.024Z,88.90
2017-12-26T07:05:24.638Z,89.20
2017-12-26T07:07:51.181Z,89.90
2017-12-26T07:10:17.739Z,89.70
2017-12-26T07:12:44.339Z,89.70
2017-12-26T07:15:10.910Z,89.50
2017-12-26T07:17:37.825Z,88.90
2017-12-26T07:20:04.569Z,88.90
2017-12-26T07:22:31.111Z,88.70
2017-12-26T07:24:57.650Z,88.80
2017-12-26T07:27:24.306Z,88.70
2017-12-26T07:29:50.850Z,88.80
2017-12-26T07:32:17.407Z,88.90
2017-12-26T07:34:44.022Z,88.80
2017-12-26T07:37:10.601Z,88.80
2017-12-26T07:39:37.251Z,88.80
2017-12-26T07:42:04.045Z,89.00
2017-12-26T07:44:30.946Z,89.20
2017-12-26T07:46:57.711Z,89.20
2017-12-26T07:49:24.305Z,89.40
2017-12-26T07:51:51.319Z,88.40
2017-12-26T07:54:17.968Z,88.40
2017-12-26T07:56:44.695Z,88.20
2017-12-26T07:59:11.369Z,87.90
2017-12-26T08:01:37.915Z,87.80
2017-12-26T08:04:04.525Z,87.30
2017-12-26T08:06:31.112Z,86.30
2017-12-26T08:08:57.654Z,86.10
2017-12-26T08:11:24.309Z,86.20
2017-12-26T08:13:50.958Z,86.20
2017-12-26T08:16:17.504Z,86.20
2017-12-26T08:18:44.257Z,86.60
2017-12-26T08:21:10.905Z,86.60
2017-12-26T08:23:37.656Z,86.70
2017-12-26T08:26:04.837Z,87.10
2017-12-26T08:28:32.185Z,87.20
2017-12-26T08:30:58.751Z,87.20
2017-12-26T08:33:25.455Z,87.10
2017-12-26T08:35:52.106Z,86.70
2017-12-26T08:38:18.646Z,86.60
2017-12-26T08:40:45.303Z,86.60
2017-12-26T08:43:12.080Z,86.60
2017-12-26T08:45:38.730Z,86.70
2017-12-26T08:48:05.521Z,87.10
2017-12-26T08:50:32.515Z,87.30
2017-12-26T08:52:59.161Z,87.30
2017-12-26T08:55:25.844Z,87.30
2017-12-26T08:57:52.462Z,87.10
2017-12-26T09:00:19.115Z,86.60
2017-12-26T09:02:45.711Z,86.00
2017-12-26T09:05:12.658Z,84.80
2017-12-26T09:07:39.228Z,84.80
2017-12-26T09:10:06.286Z,85.10
2017-12-26T09:12:33.214Z,85.10
2017-12-26T09:14:59.757Z,85.10
2017-12-26T09:17:26.351Z,84.90
2017-12-26T09:19:52.911Z,84.90
2017-12-26T09:22:19.454Z,84.50
2017-12-26T09:24:46.062Z,83.60
2017-12-26T09:27:12.605Z,82.60
2017-12-26T09:29:39.156Z,81.90
2017-12-26T09:32:05.783Z,81.80
2017-12-26T09:34:32.326Z,81.60
2017-12-26T09:36:58.885Z,81.90
2017-12-26T09:39:25.886Z,81.30
2017-12-26T09:41:52.805Z,80.60
2017-12-26T09:44:19.362Z,80.70
2017-12-26T09:46:45.997Z,79.70
2017-12-26T09:49:12.547Z,79.40
2017-12-26T09:51:39.106Z,80.20
2017-12-26T09:54:05.723Z,80.70
2017-12-26T09:56:32.262Z,81.40
2017-12-26T09:58:58.800Z,82.10
2017-12-26T10:01:25.539Z,83.00
2017-12-26T10:03:52.097Z,83.50
2017-12-26T10:06:18.643Z,83.80
2017-12-26T10:08:45.249Z,83.30
2017-12-26T10:11:11.795Z,83.00
2017-12-26T10:13:38.435Z,82.60
2017-12-26T10:16:05.039Z,82.70
2017-12-26T10:18:32.510Z,81.40
2017-12-26T10:20:59.045Z,78.70
2017-12-26T10:23:25.680Z,77.10
2017-12-26T10:25:52.602Z,74.90
2017-12-26T10:28:19.176Z,74.90
2017-12-26T10:30:46.234Z,74.10
2017-12-26T10:33:13.189Z,73.70
2017-12-26T10:35:40.119Z,71.90
2017-12-26T10:38:06.731Z,71.90
2017-12-26T10:40:33.286Z,72.60
2017-12-26T10:42:59.830Z,72.20
2017-12-26T10:45:26.459Z,71.60
2017-12-26T10:47:53.035Z,70.20
2017-12-26T10:50:19.595Z,71.00
2017-12-26T10:52:46.239Z,71.60
2017-12-26T10:55:12.847Z,68.40
2017-12-26T10:57:39.414Z,69.90
2017-12-26T11:00:06.027Z,69.90
2017-12-26T11:02:33.014Z,71.90
2017-12-26T11:04:59.563Z,71.90
2017-12-26T11:07:26.354Z,71.80
2017-12-26T11:09:52.916Z,71.00
2017-12-26T11:12:19.483Z,70.20
2017-12-26T11:14:46.480Z,68.30
2017-12-26T11:17:13.043Z,68.40
2017-12-26T11:19:39.603Z,68.40
2017-12-26T11:22:06.212Z,67.10
2017-12-26T11:24:32.850Z,67.80
2017-12-26T11:26:59.416Z,69.00
2017-12-26T11:29:26.235Z,69.10
2017-12-26T11:31:53.155Z,67.70
2017-12-26T11:34:19.752Z,67.70
2017-12-26T11:36:46.372Z,67.20
2017-12-26T11:39:13.307Z,68.00
2017-12-26T11:41:39.882Z,68.00
2017-12-26T11:44:06.882Z,66.90
2017-12-26T11:46:33.715Z,66.90
2017-12-26T11:49:00.307Z,66.30
2017-12-26T11:51:26.943Z,65.50
2017-12-26T11:53:53.496Z,67.30
2017-12-26T11:56:20.066Z,68.70
2017-12-26T11:58:46.679Z,68.50
2017-12-26T12:01:13.248Z,68.50
2017-12-26T12:03:39.807Z,68.10
2017-12-26T12:06:06.419Z,66.10
2017-12-26T12:08:32.971Z,67.40
2017-12-26T12:10:59.530Z,68.00
2017-12-26T12:13:26.345Z,67.80
2017-12-26T12:15:52.911Z,68.60
2017-12-26T12:18:19.485Z,67.80
2017-12-26T12:20:46.095Z,70.30
2017-12-26T12:23:12.663Z,72.30
2017-12-26T12:25:39.218Z,72.40
2017-12-26T12:28:05.843Z,72.20
2017-12-26T12:30:32.403Z,72.10
2017-12-26T12:32:58.960Z,71.00
2017-12-26T12:35:25.647Z,71.60
2017-12-26T12:37:52.587Z,68.70
2017-12-26T12:40:19.158Z,68.70
2017-12-26T12:42:46.152Z,64.70
2017-12-26T12:45:12.717Z,64.70
2017-12-26T12:47:39.347Z,64.60
2017-12-26T12:50:05.959Z,62.90
2017-12-26T12:52:32.907Z,61.80
2017-12-26T12:54:59.837Z,61.10
2017-12-26T12:57:26.475Z,61.10
2017-12-26T12:59:53.022Z,61.00
2017-12-26T13:02:19.595Z,60.10
2017-12-26T13:04:46.215Z,61.20
2017-12-26T13:07:12.792Z,60.20
2017-12-26T13:09:39.364Z,60.20
2017-12-26T13:12:06.084Z,60.50
2017-12-26T13:14:32.671Z,61.10
2017-12-26T13:16:59.241Z,61.30
2017-12-26T13:19:25.847Z,61.90
2017-12-26T13:21:52.772Z,63.60
2017-12-26T13:24:19.327Z,63.70
2017-12-26T13:26:45.950Z,65.00
2017-12-26T13:29:12.522Z,65.90
2017-12-26T13:31:39.092Z,66.10
2017-12-26T13:34:05.697Z,67.00
2017-12-26T13:36:32.258Z,68.00
2017-12-26T13:38:58.814Z,68.10
2017-12-26T13:41:25.434Z,68.80
2017-12-26T13:43:51.980Z,69.20
2017-12-26T13:46:18.522Z,69.80
2017-12-26T13:48:45.158Z,70.00
2017-12-26T13:51:11.707Z,70.40
2017-12-26T13:53:38.258Z,71.40
2017-12-26T13:56:04.858Z,71.90
2017-12-26T13:58:31.419Z,72.10
2017-12-26T14:00:58.333Z,71.90
2017-12-26T14:03:24.934Z,71.90
2017-12-26T14:05:51.862Z,70.60
2017-12-26T14:08:18.414Z,70.60
2017-12-26T14:10:45.022Z,71.00
2017-12-26T14:13:11.610Z,71.20
2017-12-26T14:15:38.158Z,71.10
2017-12-26T14:18:04.905Z,71.00
2017-12-26T14:20:31.465Z,71.50
2017-12-26T14:22:58.010Z,68.50
2017-12-26T14:25:24.706Z,67.10
2017-12-26T14:27:51.306Z,66.10
2017-12-26T14:30:17.861Z,65.30
2017-12-26T14:32:44.833Z,66.30
2017-12-26T14:35:11.739Z,66.10
2017-12-26T14:37:38.298Z,66.10
2017-12-26T14:40:04.902Z,65.90
2017-12-26T14:42:31.445Z,66.10
2017-12-26T14:44:58.001Z,66.00
2017-12-26T14:47:24.719Z,66.60
2017-12-26T14:49:51.642Z,68.40
2017-12-26T14:52:18.207Z,68.40
2017-12-26T14:54:44.992Z,69.00
2017-12-26T14:57:11.563Z,69.50
2017-12-26T14:59:38.126Z,70.30
2017-12-26T15:02:04.726Z,71.20
2017-12-26T15:04:31.647Z,71.80
2017-12-26T15:06:58.217Z,71.80
2017-12-26T15:09:25.235Z,72.90
2017-12-26T15:11:51.795Z,72.90
2017-12-26T15:14:18.382Z,72.60
2017-12-26T15:16:45.048Z,72.90
2017-12-26T15:19:11.605Z,73.00
2017-12-26T15:21:38.155Z,73.80
2017-12-26T15:24:04.875Z,74.20
2017-12-26T15:26:31.786Z,74.80
2017-12-26T15:28:58.337Z,74.70
2017-12-26T15:31:25.106Z,75.30
2017-12-26T15:33:51.646Z,75.80
2017-12-26T15:36:18.231Z,76.00
2017-12-26T15:38:45.270Z,76.20
2017-12-26T15:41:11.810Z,76.20
2017-12-26T15:43:38.366Z,76.30
2017-12-26T15:46:05.006Z,76.20
2017-12-26T15:48:31.589Z,76.40
2017-12-26T15:50:58.145Z,76.70
2017-12-26T15:53:24.758Z,77.00
2017-12-26T15:55:51.290Z,77.00
2017-12-26T15:58:17.854Z,77.40
2017-12-26T16:00:44.842Z,77.90
2017-12-26T16:03:11.398Z,77.90
2017-12-26T16:05:37.963Z,78.20
2017-12-26T16:08:04.769Z,78.00
2017-12-26T16:10:31.698Z,78.10
2017-12-26T16:12:58.246Z,78.10
2017-12-26T16:15:25.066Z,77.80
2017-12-26T16:17:51.650Z,77.60
2017-12-26T16:20:18.210Z,77.50
2017-12-26T16:22:45.206Z,77.20
2017-12-26T16:25:11.754Z,77.20
2017-12-26T16:27:38.329Z,77.30
2017-12-26T16:30:04.974Z,77.20
2017-12-26T16:32:31.611Z,77.20
2017-12-26T16:34:58.329Z,77.30
2017-12-26T16:37:25.376Z,77.50
2017-12-26T16:39:52.391Z,77.70
2017-12-26T16:42:19.072Z,77.70
2017-12-26T16:44:46.122Z,78.20
2017-12-26T16:47:12.757Z,78.20
2017-12-26T16:49:39.455Z,78.30
2017-12-26T16:52:06.210Z,78.40
2017-12-26T16:54:32.816Z,78.50
2017-12-26T16:56:59.479Z,78.40
2017-12-26T16:59:26.074Z,78.40
2017-12-26T17:01:52.623Z,78.30
2017-12-26T17:04:19.167Z,78.40
2017-12-26T17:06:45.871Z,78.40
2017-12-26T17:09:12.518Z,78.50
2017-12-26T17:11:39.214Z,78.60
2017-12-26T17:14:06.038Z,78.40
2017-12-26T17:16:32.988Z,78.50
2017-12-26T17:18:59.933Z,78.80
2017-12-26T17:21:26.647Z,78.70
2017-12-26T17:23:53.197Z,79.00
2017-12-26T17:26:19.730Z,79.30
2017-12-26T17:28:46.334Z,79.50
2017-12-26T17:31:12.878Z,79.60
2017-12-26T17:33:39.439Z,80.20
2017-12-26T17:36:06.422Z,80.70
2017-12-26T17:38:32.988Z,80.70
2017-12-26T17:40:59.573Z,81.20
2017-12-26T17:43:26.190Z,81.40
2017-12-26T17:45:52.734Z,81.40
2017-12-26T17:48:19.535Z,81.60
2017-12-26T17:50:46.594Z,81.30
2017-12-26T17:53:13.507Z,80.40
2017-12-26T17:55:40.069Z,80.40
2017-12-26T17:58:06.674Z,80.20
2017-12-26T18:00:33.225Z,80.70
2017-12-26T18:02:59.774Z,80.50
2017-12-26T18:05:26.465Z,80.80
2017-12-26T18:07:53.010Z,81.10
2017-12-26T18:10:19.562Z,81.60
2017-12-26T18:12:46.169Z,82.20
2017-12-26T18:15:12.731Z,82.70
2017-12-26T18:17:39.280Z,82.80
2017-12-26T18:20:05.890Z,83.20
2017-12-26T18:22:32.802Z,83.40
2017-12-26T18:24:59.362Z,83.40
2017-12-26T18:27:26.212Z,83.30
2017-12-26T18:29:52.910Z,82.60
2017-12-26T18:32:19.518Z,81.80
2017-12-26T18:34:46.165Z,81.30
2017-12-26T18:37:12.709Z,81.40
2017-12-26T18:39:39.370Z,81.60
2017-12-26T18:42:06.079Z,82.00
2017-12-26T18:44:32.642Z,82.30
2017-12-26T18:46:59.229Z,82.50
2017-12-26T18:49:26.044Z,82.90
2017-12-26T18:51:52.688Z,83.20
2017-12-26T18:54:19.261Z,83.30
2017-12-26T18:56:45.996Z,83.10
2017-12-26T18:59:12.548Z,83.70
2017-12-26T19:01:39.428Z,84.10
2017-12-26T19:04:06.774Z,84.50
2017-12-26T19:06:33.380Z,84.50
2017-12-26T19:08:59.937Z,84.20
2017-12-26T19:11:26.599Z,84.00
2017-12-26T19:13:53.252Z,83.70
2017-12-26T19:16:19.900Z,83.60
2017-12-26T19:18:46.540Z,83.00
2017-12-26T19:21:13.194Z,82.70
2017-12-26T19:23:39.767Z,82.80
2017-12-26T19:26:06.374Z,82.70
2017-12-26T19:28:32.913Z,82.90
2017-12-26T19:30:59.481Z,82.80
2017-12-26T19:33:26.085Z,82.40
2017-12-26T19:35:52.661Z,82.50
2017-12-26T19:38:19.205Z,82.80
2017-12-26T19:40:45.879Z,82.90
2017-12-26T19:43:12.526Z,83.30
2017-12-26T19:45:39.081Z,83.20
2017-12-26T19:48:05.827Z,83.00
2017-12-26T19:50:32.489Z,83.00
2017-12-26T19:52:59.042Z,83.50
2017-12-26T19:55:25.824Z,84.10
2017-12-26T19:57:52.785Z,84.60
2017-12-26T20:00:19.327Z,84.60
2017-12-26T20:02:46.305Z,84.40
2017-12-26T20:05:12.858Z,84.40
2017-12-26T20:07:39.405Z,84.50
2017-12-26T20:10:06.018Z,84.30
2017-12-26T20:12:32.965Z,84.50
2017-12-26T20:14:59.605Z,84.50
2017-12-26T20:17:26.240Z,84.80
2017-12-26T20:19:52.805Z,84.60
2017-12-26T20:22:19.354Z,84.70
2017-12-26T20:24:46.378Z,84.70
2017-12-26T20:27:12.985Z,84.70
2017-12-26T20:29:39.690Z,85.30
2017-12-26T20:32:06.497Z,85.60
2017-12-26T20:34:33.219Z,85.80
2017-12-26T20:36:59.929Z,85.90
2017-12-26T20:39:27.920Z,85.50
2017-12-26T20:41:56.599Z,85.50
2017-12-26T20:44:23.185Z,85.70
2017-12-26T20:46:49.913Z,86.00
2017-12-26T20:49:16.799Z,86.00
2017-12-26T20:51:45.509Z,85.90
2017-12-26T20:54:13.016Z,85.40
2017-12-26T20:56:42.328Z,86.20
2017-12-26T20:59:09.444Z,86.50
2017-12-26T21:01:36.561Z,86.70
2017-12-26T21:04:03.197Z,86.60
2017-12-26T21:06:30.309Z,86.70
2017-12-26T21:08:58.798Z,86.50
2017-12-26T21:11:25.985Z,86.40
2017-12-26T21:13:55.285Z,86.40
2017-12-26T21:16:24.949Z,86.00
2017-12-26T21:18:55.012Z,85.80
2017-12-26T21:21:23.230Z,85.30
2017-12-26T21:26:29.394Z,85.00
2017-12-26T21:28:58.722Z,85.00
2017-12-26T21:31:28.360Z,85.40
2017-12-26T21:33:56.982Z,85.60
2017-12-26T21:36:24.635Z,85.30
2017-12-26T21:38:53.707Z,84.90
2017-12-26T21:41:22.483Z,84.40
2017-12-26T21:43:50.280Z,83.90
2017-12-26T21:46:17.530Z,83.90
2017-12-26T21:48:44.902Z,83.60
2017-12-26T21:51:12.519Z,83.70
2017-12-26T21:53:39.700Z,83.80
2017-12-26T21:56:07.384Z,84.10
2017-12-26T21:58:34.452Z,84.40
2017-12-26T22:01:01.348Z,84.40
2017-12-26T22:03:27.963Z,84.90
2017-12-26T22:05:57.762Z,85.30
2017-12-26T22:08:24.601Z,85.00
2017-12-26T22:10:51.558Z,85.20
2017-12-26T22:13:18.226Z,85.20
2017-12-26T22:15:44.878Z,85.70
2017-12-26T22:18:11.478Z,85.70
2017-12-26T22:20:38.952Z,85.80
2017-12-26T22:23:06.212Z,85.80
2017-12-26T22:25:32.972Z,86.40
2017-12-26T22:27:59.901Z,86.10
2017-12-26T22:30:26.750Z,86.20
2017-12-26T22:32:56.338Z,85.80
2017-12-26T22:35:27.197Z,85.80
2017-12-26T22:37:55.737Z,85.80
2017-12-26T22:40:22.884Z,85.80
2017-12-26T22:42:50.090Z,86.10
2017-12-26T22:45:16.757Z,86.20
2017-12-26T22:47:43.308Z,85.80
2017-12-26T22:50:09.981Z,85.60
2017-12-26T22:52:36.574Z,85.30
2017-12-26T22:55:04.628Z,85.40
2017-12-26T22:57:34.258Z,85.50
2017-12-26T23:00:03.690Z,85.50
2017-12-26T23:02:33.066Z,85.50
2017-12-26T23:05:01.487Z,85.40
2017-12-26T23:07:30.500Z,85.70
2017-12-26T23:09:57.800Z,85.80
2017-12-26T23:12:28.575Z,85.60
2017-12-26T23:15:03.979Z,85.60
2017-12-26T23:17:37.658Z,85.60
2017-12-26T23:20:11.340Z,85.70
2017-12-26T23:22:39.140Z,86.30
2017-12-26T23:25:12.716Z,86.30
2017-12-26T23:27:46.126Z,86.40
2017-12-26T23:30:18.689Z,86.40
2017-12-26T23:32:51.089Z,86.30
2017-12-26T23:35:23.728Z,86.20
2017-12-26T23:37:56.269Z,86.50
2017-12-26T23:40:29.001Z,86.60
2017-12-26T23:43:01.518Z,87.00
2017-12-26T23:48:36.426Z,87.10
2017-12-26T23:51:09.189Z,86.90
2017-12-26T23:53:41.794Z,86.50
2017-12-26T23:56:15.189Z,86.60
2017-12-26T23:58:48.318Z,86.50
